sensor_id;sensor_type;location;lat;lon;timestamp;temperature;humidity
1351;DHT22;669;50.206;9.998;2023-05-07T00:01:25;13.50;70.30
1351;DHT22;669;50.206;9.998;2023-05-07T00:03:54;13.30;76.10
1351;DHT22;669;50.206;9.998;2023-05-07T00:06:23;13.30;80.60
1351;DHT22;669;50.206;9.998;2023-05-07T00:08:52;13.30;81.20
1351;DHT22;669;50.206;9.998;2023-05-07T00:11:20;13.30;82.00
1351;DHT22;669;50.206;9.998;2023-05-07T00:13:48;13.20;84.70
1351;DHT22;669;50.206;9.998;2023-05-07T00:16:16;13.10;90.80
1351;DHT22;669;50.206;9.998;2023-05-07T00:18:44;13.10;91.30
1351;DHT22;669;50.206;9.998;2023-05-07T00:21:13;13.00;91.70
1351;DHT22;669;50.206;9.998;2023-05-07T00:23:41;12.90;91.10
1351;DHT22;669;50.206;9.998;2023-05-07T00:26:09;12.90;91.40
1351;DHT22;669;50.206;9.998;2023-05-07T00:28:37;12.80;91.70
1351;DHT22;669;50.206;9.998;2023-05-07T00:31:05;12.70;92.40
1351;DHT22;669;50.206;9.998;2023-05-07T00:33:33;12.80;92.10
1351;DHT22;669;50.206;9.998;2023-05-07T00:36:01;12.90;92.10
1351;DHT22;669;50.206;9.998;2023-05-07T00:38:30;13.10;91.50
1351;DHT22;669;50.206;9.998;2023-05-07T00:40:58;13.30;90.60
1351;DHT22;669;50.206;9.998;2023-05-07T00:43:26;13.50;90.10
1351;DHT22;669;50.206;9.998;2023-05-07T00:45:54;13.60;89.90
1351;DHT22;669;50.206;9.998;2023-05-07T00:48:22;13.60;90.40
1351;DHT22;669;50.206;9.998;2023-05-07T00:50:51;13.60;90.00
1351;DHT22;669;50.206;9.998;2023-05-07T00:53:19;13.50;89.90
1351;DHT22;669;50.206;9.998;2023-05-07T00:55:48;13.50;90.70
1351;DHT22;669;50.206;9.998;2023-05-07T00:58:16;13.40;91.20
1351;DHT22;669;50.206;9.998;2023-05-07T01:00:44;13.40;90.60
1351;DHT22;669;50.206;9.998;2023-05-07T01:03:13;13.40;90.10
1351;DHT22;669;50.206;9.998;2023-05-07T01:05:42;13.50;89.50
1351;DHT22;669;50.206;9.998;2023-05-07T01:08:12;13.60;88.50
1351;DHT22;669;50.206;9.998;2023-05-07T01:10:40;13.50;88.40
1351;DHT22;669;50.206;9.998;2023-05-07T01:13:12;13.60;88.10
1351;DHT22;669;50.206;9.998;2023-05-07T01:15:40;13.60;88.60
1351;DHT22;669;50.206;9.998;2023-05-07T01:18:08;13.70;87.80
1351;DHT22;669;50.206;9.998;2023-05-07T01:20:36;13.70;90.50
1351;DHT22;669;50.206;9.998;2023-05-07T01:23:07;13.70;91.40
1351;DHT22;669;50.206;9.998;2023-05-07T01:25:35;13.80;89.50
1351;DHT22;669;50.206;9.998;2023-05-07T01:28:03;13.80;87.00
1351;DHT22;669;50.206;9.998;2023-05-07T01:30:33;13.90;86.10
1351;DHT22;669;50.206;9.998;2023-05-07T01:33:04;14.00;86.20
1351;DHT22;669;50.206;9.998;2023-05-07T01:35:37;14.00;85.20
1351;DHT22;669;50.206;9.998;2023-05-07T01:38:08;14.10;83.70
1351;DHT22;669;50.206;9.998;2023-05-07T01:40:36;14.20;83.30
1351;DHT22;669;50.206;9.998;2023-05-07T01:43:05;14.10;82.80
1351;DHT22;669;50.206;9.998;2023-05-07T01:45:34;14.10;82.80
1351;DHT22;669;50.206;9.998;2023-05-07T01:48:03;14.10;82.80
1351;DHT22;669;50.206;9.998;2023-05-07T01:50:32;14.10;81.60
1351;DHT22;669;50.206;9.998;2023-05-07T01:53:01;14.20;81.50
1351;DHT22;669;50.206;9.998;2023-05-07T01:55:30;14.10;82.30
1351;DHT22;669;50.206;9.998;2023-05-07T01:57:58;14.10;82.80
1351;DHT22;669;50.206;9.998;2023-05-07T02:00:26;14.20;82.90
1351;DHT22;669;50.206;9.998;2023-05-07T02:02:56;14.20;82.50
1351;DHT22;669;50.206;9.998;2023-05-07T02:05:24;14.20;81.70
1351;DHT22;669;50.206;9.998;2023-05-07T02:07:52;14.20;82.90
1351;DHT22;669;50.206;9.998;2023-05-07T02:10:20;14.20;82.10
1351;DHT22;669;50.206;9.998;2023-05-07T02:12:49;14.20;82.90
1351;DHT22;669;50.206;9.998;2023-05-07T02:15:17;14.20;82.90
1351;DHT22;669;50.206;9.998;2023-05-07T02:17:58;14.20;82.90
1351;DHT22;669;50.206;9.998;2023-05-07T02:20:27;14.20;82.40
1351;DHT22;669;50.206;9.998;2023-05-07T02:22:54;14.20;81.20
1351;DHT22;669;50.206;9.998;2023-05-07T02:25:23;14.10;82.00
1351;DHT22;669;50.206;9.998;2023-05-07T02:27:52;14.10;81.20
1351;DHT22;669;50.206;9.998;2023-05-07T02:30:20;14.10;82.40
1351;DHT22;669;50.206;9.998;2023-05-07T02:32:48;14.10;82.30
1351;DHT22;669;50.206;9.998;2023-05-07T02:35:17;14.10;82.30
1351;DHT22;669;50.206;9.998;2023-05-07T02:37:44;14.10;81.10
1351;DHT22;669;50.206;9.998;2023-05-07T02:40:13;14.10;81.20
1351;DHT22;669;50.206;9.998;2023-05-07T02:42:40;14.00;82.30
1351;DHT22;669;50.206;9.998;2023-05-07T02:45:10;13.90;83.00
1351;DHT22;669;50.206;9.998;2023-05-07T02:47:38;13.90;84.50
1351;DHT22;669;50.206;9.998;2023-05-07T02:50:07;13.80;84.30
1351;DHT22;669;50.206;9.998;2023-05-07T02:52:35;13.80;84.20
1351;DHT22;669;50.206;9.998;2023-05-07T02:55:04;13.80;84.00
1351;DHT22;669;50.206;9.998;2023-05-07T02:57:32;13.80;84.20
1351;DHT22;669;50.206;9.998;2023-05-07T03:00:06;13.80;84.00
1351;DHT22;669;50.206;9.998;2023-05-07T03:02:39;13.80;83.60
1351;DHT22;669;50.206;9.998;2023-05-07T03:05:07;13.80;83.20
1351;DHT22;669;50.206;9.998;2023-05-07T03:07:35;13.80;82.90
1351;DHT22;669;50.206;9.998;2023-05-07T03:10:03;13.80;83.10
1351;DHT22;669;50.206;9.998;2023-05-07T03:12:31;13.80;83.70
1351;DHT22;669;50.206;9.998;2023-05-07T03:14:59;13.80;83.50
1351;DHT22;669;50.206;9.998;2023-05-07T03:17:27;13.80;83.70
1351;DHT22;669;50.206;9.998;2023-05-07T03:19:56;13.80;83.40
1351;DHT22;669;50.206;9.998;2023-05-07T03:22:24;13.80;84.30
1351;DHT22;669;50.206;9.998;2023-05-07T03:24:52;13.80;84.50
1351;DHT22;669;50.206;9.998;2023-05-07T03:27:20;13.80;84.40
1351;DHT22;669;50.206;9.998;2023-05-07T03:29:48;13.70;83.30
1351;DHT22;669;50.206;9.998;2023-05-07T03:32:16;13.60;84.40
1351;DHT22;669;50.206;9.998;2023-05-07T03:34:44;13.60;86.20
1351;DHT22;669;50.206;9.998;2023-05-07T03:37:13;13.60;85.90
1351;DHT22;669;50.206;9.998;2023-05-07T03:39:41;13.60;84.90
1351;DHT22;669;50.206;9.998;2023-05-07T03:42:09;13.60;85.80
1351;DHT22;669;50.206;9.998;2023-05-07T03:44:37;13.60;85.20
1351;DHT22;669;50.206;9.998;2023-05-07T03:47:04;13.60;86.50
1351;DHT22;669;50.206;9.998;2023-05-07T03:49:32;13.60;86.10
1351;DHT22;669;50.206;9.998;2023-05-07T03:52:00;13.60;85.30
1351;DHT22;669;50.206;9.998;2023-05-07T03:54:30;13.50;84.70
1351;DHT22;669;50.206;9.998;2023-05-07T03:56:58;13.60;85.50
1351;DHT22;669;50.206;9.998;2023-05-07T03:59:26;13.60;84.80
1351;DHT22;669;50.206;9.998;2023-05-07T04:01:54;13.60;85.60
1351;DHT22;669;50.206;9.998;2023-05-07T04:04:22;13.60;86.30
1351;DHT22;669;50.206;9.998;2023-05-07T04:06:50;13.60;86.40
1351;DHT22;669;50.206;9.998;2023-05-07T04:09:18;13.60;86.60
1351;DHT22;669;50.206;9.998;2023-05-07T04:11:47;13.60;87.00
1351;DHT22;669;50.206;9.998;2023-05-07T04:14:15;13.70;86.80
1351;DHT22;669;50.206;9.998;2023-05-07T04:16:43;13.60;86.00
1351;DHT22;669;50.206;9.998;2023-05-07T04:19:11;13.60;85.50
1351;DHT22;669;50.206;9.998;2023-05-07T04:21:39;13.60;85.30
1351;DHT22;669;50.206;9.998;2023-05-07T04:24:07;13.70;85.70
1351;DHT22;669;50.206;9.998;2023-05-07T04:26:35;13.70;84.20
1351;DHT22;669;50.206;9.998;2023-05-07T04:29:04;13.70;84.20
1351;DHT22;669;50.206;9.998;2023-05-07T04:31:32;13.70;83.90
1351;DHT22;669;50.206;9.998;2023-05-07T04:34:00;13.70;83.20
1351;DHT22;669;50.206;9.998;2023-05-07T04:36:28;13.70;81.50
1351;DHT22;669;50.206;9.998;2023-05-07T04:38:56;13.70;83.50
1351;DHT22;669;50.206;9.998;2023-05-07T04:41:24;13.70;79.70
1351;DHT22;669;50.206;9.998;2023-05-07T04:43:52;13.60;82.30
1351;DHT22;669;50.206;9.998;2023-05-07T04:46:21;13.70;84.90
1351;DHT22;669;50.206;9.998;2023-05-07T04:48:49;13.70;83.50
1351;DHT22;669;50.206;9.998;2023-05-07T04:51:16;13.80;82.50
1351;DHT22;669;50.206;9.998;2023-05-07T04:53:44;13.80;82.90
1351;DHT22;669;50.206;9.998;2023-05-07T04:56:12;13.80;82.50
1351;DHT22;669;50.206;9.998;2023-05-07T04:58:40;13.80;82.00
1351;DHT22;669;50.206;9.998;2023-05-07T05:01:08;13.90;82.70
1351;DHT22;669;50.206;9.998;2023-05-07T05:03:37;14.00;81.30
1351;DHT22;669;50.206;9.998;2023-05-07T05:06:06;14.00;80.20
1351;DHT22;669;50.206;9.998;2023-05-07T05:08:34;14.10;79.50
1351;DHT22;669;50.206;9.998;2023-05-07T05:11:02;14.20;81.70
1351;DHT22;669;50.206;9.998;2023-05-07T05:13:30;14.20;75.70
1351;DHT22;669;50.206;9.998;2023-05-07T05:15:58;14.20;77.60
1351;DHT22;669;50.206;9.998;2023-05-07T05:18:26;14.30;78.20
1351;DHT22;669;50.206;9.998;2023-05-07T05:20:55;14.30;78.20
1351;DHT22;669;50.206;9.998;2023-05-07T05:23:23;14.40;75.60
1351;DHT22;669;50.206;9.998;2023-05-07T05:25:55;14.40;78.70
1351;DHT22;669;50.206;9.998;2023-05-07T05:28:24;14.40;77.20
1351;DHT22;669;50.206;9.998;2023-05-07T05:30:52;14.40;77.30
1351;DHT22;669;50.206;9.998;2023-05-07T05:33:20;14.40;76.00
1351;DHT22;669;50.206;9.998;2023-05-07T05:35:49;14.40;76.60
1351;DHT22;669;50.206;9.998;2023-05-07T05:38:18;14.50;76.50
1351;DHT22;669;50.206;9.998;2023-05-07T05:40:47;14.40;79.00
1351;DHT22;669;50.206;9.998;2023-05-07T05:43:15;14.30;74.30
1351;DHT22;669;50.206;9.998;2023-05-07T05:45:43;14.40;76.30
1351;DHT22;669;50.206;9.998;2023-05-07T05:48:11;14.40;76.60
1351;DHT22;669;50.206;9.998;2023-05-07T05:50:39;14.40;76.60
1351;DHT22;669;50.206;9.998;2023-05-07T05:53:07;14.30;75.90
1351;DHT22;669;50.206;9.998;2023-05-07T05:55:37;14.40;78.50
1351;DHT22;669;50.206;9.998;2023-05-07T05:58:05;14.50;77.90
1351;DHT22;669;50.206;9.998;2023-05-07T06:00:33;14.60;76.50
1351;DHT22;669;50.206;9.998;2023-05-07T06:03:01;14.60;78.80
1351;DHT22;669;50.206;9.998;2023-05-07T06:05:29;14.60;76.80
1351;DHT22;669;50.206;9.998;2023-05-07T06:07:57;14.70;77.10
1351;DHT22;669;50.206;9.998;2023-05-07T06:10:25;14.80;74.50
1351;DHT22;669;50.206;9.998;2023-05-07T06:12:55;14.80;75.00
1351;DHT22;669;50.206;9.998;2023-05-07T06:15:23;14.80;73.90
1351;DHT22;669;50.206;9.998;2023-05-07T06:17:51;14.80;73.20
1351;DHT22;669;50.206;9.998;2023-05-07T06:20:18;14.80;76.70
1351;DHT22;669;50.206;9.998;2023-05-07T06:22:46;14.80;73.30
1351;DHT22;669;50.206;9.998;2023-05-07T06:25:14;14.70;71.80
1351;DHT22;669;50.206;9.998;2023-05-07T06:27:42;14.70;73.80
1351;DHT22;669;50.206;9.998;2023-05-07T06:30:12;14.50;73.60
1351;DHT22;669;50.206;9.998;2023-05-07T06:32:40;14.50;74.80
1351;DHT22;669;50.206;9.998;2023-05-07T06:35:08;14.50;74.50
1351;DHT22;669;50.206;9.998;2023-05-07T06:37:36;14.50;72.10
1351;DHT22;669;50.206;9.998;2023-05-07T06:40:06;14.50;73.20
1351;DHT22;669;50.206;9.998;2023-05-07T06:42:35;14.50;73.60
1351;DHT22;669;50.206;9.998;2023-05-07T06:45:04;14.50;69.40
1351;DHT22;669;50.206;9.998;2023-05-07T06:47:33;14.50;71.40
1351;DHT22;669;50.206;9.998;2023-05-07T06:50:01;14.70;74.50
1351;DHT22;669;50.206;9.998;2023-05-07T06:52:29;14.80;72.60
1351;DHT22;669;50.206;9.998;2023-05-07T06:54:57;14.80;70.40
1351;DHT22;669;50.206;9.998;2023-05-07T06:57:25;14.90;75.30
1351;DHT22;669;50.206;9.998;2023-05-07T06:59:53;14.90;72.60
1351;DHT22;669;50.206;9.998;2023-05-07T07:02:21;14.90;70.70
1351;DHT22;669;50.206;9.998;2023-05-07T07:04:50;14.90;71.30
1351;DHT22;669;50.206;9.998;2023-05-07T07:07:18;15.00;72.70
1351;DHT22;669;50.206;9.998;2023-05-07T07:09:46;15.00;70.70
1351;DHT22;669;50.206;9.998;2023-05-07T07:12:14;15.00;67.60
1351;DHT22;669;50.206;9.998;2023-05-07T07:14:42;15.00;66.90
1351;DHT22;669;50.206;9.998;2023-05-07T07:17:09;15.10;66.80
1351;DHT22;669;50.206;9.998;2023-05-07T07:19:37;15.10;68.20
1351;DHT22;669;50.206;9.998;2023-05-07T07:22:07;15.20;69.40
1351;DHT22;669;50.206;9.998;2023-05-07T07:24:35;15.20;66.40
1351;DHT22;669;50.206;9.998;2023-05-07T07:27:03;15.20;67.60
1351;DHT22;669;50.206;9.998;2023-05-07T07:29:31;15.20;65.30
1351;DHT22;669;50.206;9.998;2023-05-07T07:31:59;15.30;64.50
1351;DHT22;669;50.206;9.998;2023-05-07T07:34:27;15.30;68.80
1351;DHT22;669;50.206;9.998;2023-05-07T07:36:55;15.30;65.70
1351;DHT22;669;50.206;9.998;2023-05-07T07:39:24;15.40;59.80
1351;DHT22;669;50.206;9.998;2023-05-07T07:41:52;15.30;68.00
1351;DHT22;669;50.206;9.998;2023-05-07T07:44:20;15.30;64.50
1351;DHT22;669;50.206;9.998;2023-05-07T07:46:48;15.30;66.60
1351;DHT22;669;50.206;9.998;2023-05-07T07:49:16;15.40;67.20
1351;DHT22;669;50.206;9.998;2023-05-07T07:51:44;15.50;64.40
1351;DHT22;669;50.206;9.998;2023-05-07T07:54:12;15.60;63.60
1351;DHT22;669;50.206;9.998;2023-05-07T07:56:41;15.50;60.30
1351;DHT22;669;50.206;9.998;2023-05-07T07:59:09;15.50;60.40
1351;DHT22;669;50.206;9.998;2023-05-07T08:01:37;15.60;64.10
1351;DHT22;669;50.206;9.998;2023-05-07T08:04:05;15.50;64.00
1351;DHT22;669;50.206;9.998;2023-05-07T08:06:33;15.50;60.90
1351;DHT22;669;50.206;9.998;2023-05-07T08:09:01;15.50;60.70
1351;DHT22;669;50.206;9.998;2023-05-07T08:11:29;15.60;62.10
1351;DHT22;669;50.206;9.998;2023-05-07T08:13:58;15.70;63.80
1351;DHT22;669;50.206;9.998;2023-05-07T08:16:26;15.70;63.30
1351;DHT22;669;50.206;9.998;2023-05-07T08:18:56;15.70;61.90
1351;DHT22;669;50.206;9.998;2023-05-07T08:21:24;15.70;64.90
1351;DHT22;669;50.206;9.998;2023-05-07T08:23:52;15.80;62.70
1351;DHT22;669;50.206;9.998;2023-05-07T08:26:20;16.00;58.80
1351;DHT22;669;50.206;9.998;2023-05-07T08:28:48;16.10;66.10
1351;DHT22;669;50.206;9.998;2023-05-07T08:31:17;16.10;61.10
1351;DHT22;669;50.206;9.998;2023-05-07T08:33:45;16.20;62.90
1351;DHT22;669;50.206;9.998;2023-05-07T08:36:13;16.30;60.40
1351;DHT22;669;50.206;9.998;2023-05-07T08:38:41;16.50;58.50
1351;DHT22;669;50.206;9.998;2023-05-07T08:41:12;16.50;58.30
1351;DHT22;669;50.206;9.998;2023-05-07T08:43:41;16.60;60.70
1351;DHT22;669;50.206;9.998;2023-05-07T08:46:09;16.60;60.70
1351;DHT22;669;50.206;9.998;2023-05-07T08:48:39;16.80;58.40
1351;DHT22;669;50.206;9.998;2023-05-07T08:51:12;17.00;56.50
1351;DHT22;669;50.206;9.998;2023-05-07T08:53:40;17.10;56.60
1351;DHT22;669;50.206;9.998;2023-05-07T08:56:09;17.30;56.70
1351;DHT22;669;50.206;9.998;2023-05-07T08:58:37;17.40;56.80
1351;DHT22;669;50.206;9.998;2023-05-07T09:01:08;17.50;55.70
1351;DHT22;669;50.206;9.998;2023-05-07T09:03:39;17.60;57.00
1351;DHT22;669;50.206;9.998;2023-05-07T09:06:08;17.70;58.00
1351;DHT22;669;50.206;9.998;2023-05-07T09:08:36;17.70;55.90
1351;DHT22;669;50.206;9.998;2023-05-07T09:11:04;17.60;55.80
1351;DHT22;669;50.206;9.998;2023-05-07T09:13:32;17.50;56.90
1351;DHT22;669;50.206;9.998;2023-05-07T09:16:10;17.50;54.00
1351;DHT22;669;50.206;9.998;2023-05-07T09:18:42;17.40;54.00
1351;DHT22;669;50.206;9.998;2023-05-07T09:21:11;17.50;54.90
1351;DHT22;669;50.206;9.998;2023-05-07T09:23:39;17.60;57.50
1351;DHT22;669;50.206;9.998;2023-05-07T09:26:07;17.50;56.90
1351;DHT22;669;50.206;9.998;2023-05-07T09:28:39;17.60;55.40
1351;DHT22;669;50.206;9.998;2023-05-07T09:31:08;17.80;54.20
1351;DHT22;669;50.206;9.998;2023-05-07T09:33:36;18.10;53.80
1351;DHT22;669;50.206;9.998;2023-05-07T09:36:07;18.60;52.80
1351;DHT22;669;50.206;9.998;2023-05-07T09:38:36;19.10;50.50
1351;DHT22;669;50.206;9.998;2023-05-07T09:41:06;19.50;49.30
1351;DHT22;669;50.206;9.998;2023-05-07T09:43:35;20.00;48.90
1351;DHT22;669;50.206;9.998;2023-05-07T09:46:06;20.20;43.90
1351;DHT22;669;50.206;9.998;2023-05-07T09:48:39;20.40;46.30
1351;DHT22;669;50.206;9.998;2023-05-07T09:51:18;20.60;47.30
1351;DHT22;669;50.206;9.998;2023-05-07T09:53:50;20.70;44.10
1351;DHT22;669;50.206;9.998;2023-05-07T09:56:20;21.10;44.20
1351;DHT22;669;50.206;9.998;2023-05-07T09:58:48;21.50;44.80
1351;DHT22;669;50.206;9.998;2023-05-07T10:01:17;21.60;42.60
1351;DHT22;669;50.206;9.998;2023-05-07T10:03:50;21.60;43.60
1351;DHT22;669;50.206;9.998;2023-05-07T10:06:20;21.80;47.40
1351;DHT22;669;50.206;9.998;2023-05-07T10:08:49;22.00;42.60
1351;DHT22;669;50.206;9.998;2023-05-07T10:11:18;22.40;42.30
1351;DHT22;669;50.206;9.998;2023-05-07T10:13:48;22.50;37.80
1351;DHT22;669;50.206;9.998;2023-05-07T10:16:16;22.60;38.30
1351;DHT22;669;50.206;9.998;2023-05-07T10:18:45;22.60;37.60
1351;DHT22;669;50.206;9.998;2023-05-07T10:21:16;22.90;41.30
1351;DHT22;669;50.206;9.998;2023-05-07T10:23:50;23.10;39.90
1351;DHT22;669;50.206;9.998;2023-05-07T10:26:20;23.40;38.40
1351;DHT22;669;50.206;9.998;2023-05-07T10:28:54;23.70;36.00
1351;DHT22;669;50.206;9.998;2023-05-07T10:31:42;23.50;38.10
1351;DHT22;669;50.206;9.998;2023-05-07T10:34:19;23.60;38.20
1351;DHT22;669;50.206;9.998;2023-05-07T10:36:48;23.30;37.80
1351;DHT22;669;50.206;9.998;2023-05-07T10:39:19;23.00;37.50
1351;DHT22;669;50.206;9.998;2023-05-07T10:41:48;23.10;40.20
1351;DHT22;669;50.206;9.998;2023-05-07T10:44:26;22.80;36.70
1351;DHT22;669;50.206;9.998;2023-05-07T10:47:08;22.50;38.80
1351;DHT22;669;50.206;9.998;2023-05-07T10:49:38;22.60;39.90
1351;DHT22;669;50.206;9.998;2023-05-07T10:52:25;23.00;40.80
1351;DHT22;669;50.206;9.998;2023-05-07T10:55:22;23.00;39.30
1351;DHT22;669;50.206;9.998;2023-05-07T10:57:52;23.40;35.20
1351;DHT22;669;50.206;9.998;2023-05-07T11:00:42;23.70;35.40
1351;DHT22;669;50.206;9.998;2023-05-07T11:03:11;24.10;34.90
1351;DHT22;669;50.206;9.998;2023-05-07T11:05:39;23.60;33.50
1351;DHT22;669;50.206;9.998;2023-05-07T11:08:07;23.40;33.30
1351;DHT22;669;50.206;9.998;2023-05-07T11:10:50;23.50;36.30
1351;DHT22;669;50.206;9.998;2023-05-07T11:16:03;23.60;34.60
1351;DHT22;669;50.206;9.998;2023-05-07T11:18:46;24.00;33.80
1351;DHT22;669;50.206;9.998;2023-05-07T11:21:32;24.30;36.00
1351;DHT22;669;50.206;9.998;2023-05-07T11:24:00;24.00;34.20
1351;DHT22;669;50.206;9.998;2023-05-07T11:26:31;23.30;36.60
1351;DHT22;669;50.206;9.998;2023-05-07T11:29:10;23.30;35.50
1351;DHT22;669;50.206;9.998;2023-05-07T11:31:39;23.30;39.20
1351;DHT22;669;50.206;9.998;2023-05-07T11:34:08;23.30;35.80
1351;DHT22;669;50.206;9.998;2023-05-07T11:36:41;23.50;39.00
1351;DHT22;669;50.206;9.998;2023-05-07T11:39:24;23.90;37.00
1351;DHT22;669;50.206;9.998;2023-05-07T11:41:54;24.20;33.60
1351;DHT22;669;50.206;9.998;2023-05-07T11:44:22;24.30;34.10
1351;DHT22;669;50.206;9.998;2023-05-07T11:46:50;24.30;34.10
1351;DHT22;669;50.206;9.998;2023-05-07T11:49:18;24.40;31.80
1351;DHT22;669;50.206;9.998;2023-05-07T11:51:46;24.50;34.30
1351;DHT22;669;50.206;9.998;2023-05-07T11:54:17;24.70;32.10
1351;DHT22;669;50.206;9.998;2023-05-07T11:56:45;24.70;33.70
1351;DHT22;669;50.206;9.998;2023-05-07T11:59:18;24.70;28.80
1351;DHT22;669;50.206;9.998;2023-05-07T12:01:46;24.60;35.00
1351;DHT22;669;50.206;9.998;2023-05-07T12:04:19;24.70;32.00
1351;DHT22;669;50.206;9.998;2023-05-07T12:06:48;25.10;31.10
1351;DHT22;669;50.206;9.998;2023-05-07T12:09:17;25.40;30.50
1351;DHT22;669;50.206;9.998;2023-05-07T12:11:46;25.10;29.80
1351;DHT22;669;50.206;9.998;2023-05-07T12:14:14;24.70;30.70
1351;DHT22;669;50.206;9.998;2023-05-07T12:16:44;23.80;29.90
1351;DHT22;669;50.206;9.998;2023-05-07T12:19:14;23.30;31.40
1351;DHT22;669;50.206;9.998;2023-05-07T12:21:42;23.40;33.40
1351;DHT22;669;50.206;9.998;2023-05-07T12:24:10;23.50;34.20
1351;DHT22;669;50.206;9.998;2023-05-07T12:26:38;23.10;31.90
1351;DHT22;669;50.206;9.998;2023-05-07T12:29:07;22.90;35.80
1351;DHT22;669;50.206;9.998;2023-05-07T12:31:35;22.90;32.90
1351;DHT22;669;50.206;9.998;2023-05-07T12:34:04;22.90;34.00
1351;DHT22;669;50.206;9.998;2023-05-07T12:36:37;23.00;34.90
1351;DHT22;669;50.206;9.998;2023-05-07T12:39:06;23.20;31.40
1351;DHT22;669;50.206;9.998;2023-05-07T12:41:53;23.20;31.50
1351;DHT22;669;50.206;9.998;2023-05-07T12:44:22;23.60;34.90
1351;DHT22;669;50.206;9.998;2023-05-07T12:46:50;24.00;35.50
1351;DHT22;669;50.206;9.998;2023-05-07T12:49:20;23.90;34.00
1351;DHT22;669;50.206;9.998;2023-05-07T12:51:51;23.90;31.90
1351;DHT22;669;50.206;9.998;2023-05-07T12:54:28;23.20;32.20
1351;DHT22;669;50.206;9.998;2023-05-07T12:57:01;22.90;33.00
1351;DHT22;669;50.206;9.998;2023-05-07T12:59:33;22.60;33.90
1351;DHT22;669;50.206;9.998;2023-05-07T13:02:01;22.50;33.50
1351;DHT22;669;50.206;9.998;2023-05-07T13:04:30;22.10;34.20
1351;DHT22;669;50.206;9.998;2023-05-07T13:06:59;21.80;32.20
1351;DHT22;669;50.206;9.998;2023-05-07T13:09:27;21.80;34.90
1351;DHT22;669;50.206;9.998;2023-05-07T13:11:55;22.00;35.10
1351;DHT22;669;50.206;9.998;2023-05-07T13:14:26;22.30;32.60
1351;DHT22;669;50.206;9.998;2023-05-07T13:16:54;22.50;30.80
1351;DHT22;669;50.206;9.998;2023-05-07T13:19:22;22.80;32.50
1351;DHT22;669;50.206;9.998;2023-05-07T13:21:51;23.00;29.90
1351;DHT22;669;50.206;9.998;2023-05-07T13:24:19;23.40;33.30
1351;DHT22;669;50.206;9.998;2023-05-07T13:26:47;23.80;33.60
1351;DHT22;669;50.206;9.998;2023-05-07T13:29:15;24.10;33.20
1351;DHT22;669;50.206;9.998;2023-05-07T13:31:43;24.00;32.60
1351;DHT22;669;50.206;9.998;2023-05-07T13:34:12;23.50;30.00
1351;DHT22;669;50.206;9.998;2023-05-07T13:36:40;23.00;31.00
1351;DHT22;669;50.206;9.998;2023-05-07T13:39:10;22.50;30.00
1351;DHT22;669;50.206;9.998;2023-05-07T13:41:38;22.50;32.00
1351;DHT22;669;50.206;9.998;2023-05-07T13:44:06;22.70;33.90
1351;DHT22;669;50.206;9.998;2023-05-07T13:46:33;22.90;31.10
1351;DHT22;669;50.206;9.998;2023-05-07T13:49:02;22.70;31.70
1351;DHT22;669;50.206;9.998;2023-05-07T13:51:29;22.40;32.00
1351;DHT22;669;50.206;9.998;2023-05-07T13:53:58;22.10;31.60
1351;DHT22;669;50.206;9.998;2023-05-07T13:56:27;21.70;32.80
1351;DHT22;669;50.206;9.998;2023-05-07T13:58:58;21.60;31.70
1351;DHT22;669;50.206;9.998;2023-05-07T14:01:27;21.70;33.70
1351;DHT22;669;50.206;9.998;2023-05-07T14:03:56;21.90;35.50
1351;DHT22;669;50.206;9.998;2023-05-07T14:06:24;22.00;34.90
1351;DHT22;669;50.206;9.998;2023-05-07T14:08:52;22.20;33.20
1351;DHT22;669;50.206;9.998;2023-05-07T14:11:20;22.70;33.10
1351;DHT22;669;50.206;9.998;2023-05-07T14:13:49;23.20;33.20
1351;DHT22;669;50.206;9.998;2023-05-07T14:16:17;23.30;30.10
1351;DHT22;669;50.206;9.998;2023-05-07T14:18:45;23.20;33.20
1351;DHT22;669;50.206;9.998;2023-05-07T14:21:13;22.80;32.80
1351;DHT22;669;50.206;9.998;2023-05-07T14:23:41;22.50;33.00
1351;DHT22;669;50.206;9.998;2023-05-07T14:26:09;22.10;32.40
1351;DHT22;669;50.206;9.998;2023-05-07T14:28:37;21.80;34.40
1351;DHT22;669;50.206;9.998;2023-05-07T14:31:07;21.70;35.10
1351;DHT22;669;50.206;9.998;2023-05-07T14:33:36;21.60;34.80
1351;DHT22;669;50.206;9.998;2023-05-07T14:36:07;21.50;34.00
1351;DHT22;669;50.206;9.998;2023-05-07T14:38:35;21.60;35.50
1351;DHT22;669;50.206;9.998;2023-05-07T14:41:03;21.70;34.20
1351;DHT22;669;50.206;9.998;2023-05-07T14:43:31;21.70;34.60
1351;DHT22;669;50.206;9.998;2023-05-07T14:45:59;21.70;35.70
1351;DHT22;669;50.206;9.998;2023-05-07T14:48:28;21.90;35.80
1351;DHT22;669;50.206;9.998;2023-05-07T14:50:56;22.00;33.20
1351;DHT22;669;50.206;9.998;2023-05-07T14:53:24;22.10;33.50
1351;DHT22;669;50.206;9.998;2023-05-07T14:55:52;22.20;33.70
1351;DHT22;669;50.206;9.998;2023-05-07T14:58:20;22.30;34.80
1351;DHT22;669;50.206;9.998;2023-05-07T15:00:48;22.10;36.30
1351;DHT22;669;50.206;9.998;2023-05-07T15:03:16;22.00;34.10
1351;DHT22;669;50.206;9.998;2023-05-07T15:05:45;21.80;31.90
1351;DHT22;669;50.206;9.998;2023-05-07T15:08:13;21.60;34.10
1351;DHT22;669;50.206;9.998;2023-05-07T15:10:41;21.50;34.70
1351;DHT22;669;50.206;9.998;2023-05-07T15:13:10;21.40;34.40
1351;DHT22;669;50.206;9.998;2023-05-07T15:15:42;21.30;34.20
1351;DHT22;669;50.206;9.998;2023-05-07T15:18:10;21.30;34.90
1351;DHT22;669;50.206;9.998;2023-05-07T15:20:38;21.40;36.40
1351;DHT22;669;50.206;9.998;2023-05-07T15:23:09;21.40;38.10
1351;DHT22;669;50.206;9.998;2023-05-07T15:25:39;21.40;35.30
1351;DHT22;669;50.206;9.998;2023-05-07T15:28:07;21.30;34.00
1351;DHT22;669;50.206;9.998;2023-05-07T15:30:35;21.30;34.90
1351;DHT22;669;50.206;9.998;2023-05-07T15:33:03;21.20;35.00
1351;DHT22;669;50.206;9.998;2023-05-07T15:35:32;21.30;35.50
1351;DHT22;669;50.206;9.998;2023-05-07T15:38:00;21.30;33.20
1351;DHT22;669;50.206;9.998;2023-05-07T15:40:30;21.20;34.50
1351;DHT22;669;50.206;9.998;2023-05-07T15:42:59;21.20;34.90
1351;DHT22;669;50.206;9.998;2023-05-07T15:45:27;21.20;34.10
1351;DHT22;669;50.206;9.998;2023-05-07T15:47:55;21.20;35.30
1351;DHT22;669;50.206;9.998;2023-05-07T15:50:23;21.20;38.60
1351;DHT22;669;50.206;9.998;2023-05-07T15:52:51;21.30;36.60
1351;DHT22;669;50.206;9.998;2023-05-07T15:55:19;21.20;34.40
1351;DHT22;669;50.206;9.998;2023-05-07T15:57:49;21.10;35.50
1351;DHT22;669;50.206;9.998;2023-05-07T16:00:18;21.00;36.20
1351;DHT22;669;50.206;9.998;2023-05-07T16:02:46;20.90;36.20
1351;DHT22;669;50.206;9.998;2023-05-07T16:05:14;20.90;34.50
1351;DHT22;669;50.206;9.998;2023-05-07T16:07:42;20.90;33.70
1351;DHT22;669;50.206;9.998;2023-05-07T16:10:10;20.90;35.70
1351;DHT22;669;50.206;9.998;2023-05-07T16:12:38;20.80;33.60
1351;DHT22;669;50.206;9.998;2023-05-07T16:15:08;20.70;33.70
1351;DHT22;669;50.206;9.998;2023-05-07T16:17:37;20.80;34.20
1351;DHT22;669;50.206;9.998;2023-05-07T16:20:06;20.70;34.10
1351;DHT22;669;50.206;9.998;2023-05-07T16:22:34;20.50;33.90
1351;DHT22;669;50.206;9.998;2023-05-07T16:25:04;20.50;34.20
1351;DHT22;669;50.206;9.998;2023-05-07T16:27:32;20.50;34.50
1351;DHT22;669;50.206;9.998;2023-05-07T16:29:59;20.50;33.70
1351;DHT22;669;50.206;9.998;2023-05-07T16:32:31;20.50;35.80